Terminal Aerodrome Forecast
Issued by NWS

Home | Current Version | Previous Version | Text Only | Print | Product List | Glossary On
Versions: 1 2 3 4 5 6 7 8 9 10 11 12 13 14
000
FTUS43 KFGF 020635 AAA
TAFBJI
TAF AMD
KBJI 020635Z 0207/0306 33004KT P6SM SCT250
     FM020900 34010KT P6SM VCSH BKN080
     FM021300 33009KT P6SM BKN110
     FM021700 32013G20KT P6SM FEW040
     FM030100 29005KT P6SM SKC=

USA.gov is the U.S. government's official web portal to all federal, state and local government web resources and services.